Erwinville, Louisiana
Current Conditions -  °F | °C
As of 11:35 AM on Tuesday 21 Oct 2014 (Local Time) from KHZR Reporting Station
Clear Clear  
Wind Chill: 74°   Ceiling: Unl
Heat Index: 74°   Visibility: 10mi
Dew Point: 54°   Wind: 7mph
Humidity: 50%   Direction: 20°NNE
Pressure: 30.08"   Gusts: NA
Location:  30.53°N, 91.41°W
Report Text: KHZR 211635Z AUTO 02006KT 10SM CLR 23/12 A3008 RMK AO2 T02330122
Loading
Personal Weather Stations






























Interactive Weather Map
Tropical Storm Tracking
New forecast layout! Learn more

10-Day Weather Forecast

Advertisements
Track Severe Weather on mobile